CheckWX is a tool to help pilots better visualize weather data.  It is not intended as a substitute for an official pre-flight weather briefing.

19:08:31 UTC

KBTR TAF
Baton Rouge Metropolitan, Ryan Field Airport
Baton Rouge, Louisiana, USA
KBTR 121720Z 1218/1318 36012G22KT P6SM FEW250 FM130400 01006KT P6SM FEW200 FEW250 FM131700 00000KT P6SM FEW250

Nov-12@
18:00 UTC

Nov-12 @ 18:00 UTC

Nov-13@
04:00 UTC

Nov-13 @ 04:00 UTC

KBTR 121720Z 1218/1318 36012G22KT P6SM FEW250
Wind
  • 360° at 12 KTS
  • {Gusting to 22 KTS
Cloud Levels
  • Few at 25,000' AGL

Nov-13@
04:00 UTC

Nov-13 @ 04:00 UTC

Nov-13@
17:00 UTC

Nov-13 @ 17:00 UTC

FM130400 01006KT P6SM FEW200 FEW250

From

From Standard forecast or significant change

Wind
  • 010° at 6 KTS
Cloud Levels
  • Few at 20,000' AGL
  • Few at 25,000' AGL

Nov-13@
17:00 UTC

Nov-13 @ 17:00 UTC

Nov-13@
18:00 UTC

Nov-13 @ 18:00 UTC

FM131700 00000KT P6SM FEW250

From

From Standard forecast or significant change

Cloud Levels
  • Few at 25,000' AGL